createdAt,value
2022-11-01T00:01:41.185Z,14.19
2022-11-01T00:04:08.865Z,14.25
2022-11-01T00:06:36.345Z,14.18
2022-11-01T00:09:04.133Z,14.13
2022-11-01T00:11:31.285Z,14.06
2022-11-01T00:13:58.717Z,13.98
2022-11-01T00:16:26.254Z,14.04
2022-11-01T00:18:53.414Z,13.96
2022-11-01T00:21:20.956Z,14.06
2022-11-01T00:23:48.404Z,13.90
2022-11-01T00:26:21.988Z,14.09
2022-11-01T00:28:50.449Z,13.94
2022-11-01T00:31:19.333Z,13.73
2022-11-01T00:33:46.638Z,13.68
2022-11-01T00:36:14.535Z,13.74
2022-11-01T00:38:41.695Z,13.54
2022-11-01T00:41:09.371Z,13.57
2022-11-01T00:43:36.564Z,13.59
2022-11-01T00:46:04.640Z,13.61
2022-11-01T00:48:31.973Z,13.61
2022-11-01T00:50:59.036Z,13.59
2022-11-01T00:53:26.096Z,13.51
2022-11-01T00:55:53.393Z,13.43
2022-11-01T00:58:20.502Z,13.53
2022-11-01T01:00:47.793Z,13.59
2022-11-01T01:03:15.073Z,13.46
2022-11-01T01:05:42.137Z,13.40
2022-11-01T01:08:09.343Z,13.42
2022-11-01T01:10:36.435Z,13.38
2022-11-01T01:13:04.159Z,13.34
2022-11-01T01:15:31.622Z,13.23
2022-11-01T01:17:58.961Z,13.32
2022-11-01T01:20:26.613Z,13.23
2022-11-01T01:22:53.658Z,13.22
2022-11-01T01:25:20.982Z,13.20
2022-11-01T01:27:48.100Z,13.17
2022-11-01T01:30:15.679Z,13.24
2022-11-01T01:32:43.374Z,13.41
2022-11-01T01:35:10.723Z,13.20
2022-11-01T01:37:37.948Z,13.11
2022-11-01T01:40:06.557Z,13.12
2022-11-01T01:42:41.724Z,13.19
2022-11-01T01:45:31.257Z,13.09
2022-11-01T01:48:22.459Z,13.32
2022-11-01T01:50:57.182Z,13.29
2022-11-01T01:53:30.109Z,13.27
2022-11-01T01:56:03.282Z,13.34
2022-11-01T01:58:54.857Z,13.21
2022-11-01T02:01:22.105Z,13.19
2022-11-01T02:03:49.820Z,13.05
2022-11-01T02:06:18.895Z,13.04
2022-11-01T02:08:52.335Z,13.09
2022-11-01T02:11:20.680Z,13.04
2022-11-01T02:13:48.193Z,13.08
2022-11-01T02:16:34.048Z,13.11
2022-11-01T02:19:19.718Z,13.06
2022-11-01T02:21:54.654Z,13.00
2022-11-01T02:24:30.810Z,13.02
2022-11-01T02:27:09.009Z,13.02
2022-11-01T02:29:45.545Z,12.99
2022-11-01T02:32:31.241Z,12.98
2022-11-01T02:35:20.138Z,12.92
2022-11-01T02:37:55.632Z,12.99
2022-11-01T02:40:28.766Z,12.99
2022-11-01T02:43:07.903Z,12.93
2022-11-01T02:45:39.683Z,13.03
2022-11-01T02:48:07.000Z,12.99
2022-11-01T02:50:42.351Z,13.07
2022-11-01T02:53:10.065Z,13.03
2022-11-01T02:55:37.177Z,13.00
2022-11-01T02:58:16.200Z,12.99
2022-11-01T03:00:44.463Z,12.91
2022-11-01T03:03:28.509Z,13.01
2022-11-01T03:06:02.650Z,12.99
2022-11-01T03:08:44.720Z,12.94
2022-11-01T03:11:20.761Z,13.04
2022-11-01T03:13:52.389Z,13.06
2022-11-01T03:16:27.375Z,13.02
2022-11-01T03:19:06.372Z,13.05
2022-11-01T03:21:46.525Z,12.99
2022-11-01T03:24:26.988Z,12.94
2022-11-01T03:27:10.497Z,12.94
2022-11-01T03:29:39.563Z,12.90
2022-11-01T03:32:07.546Z,12.89
2022-11-01T03:34:37.382Z,12.88
2022-11-01T03:37:09.033Z,12.91
2022-11-01T03:39:42.793Z,12.82
2022-11-01T03:42:15.075Z,12.84
2022-11-01T03:44:46.669Z,12.87
2022-11-01T03:47:15.159Z,12.87
2022-11-01T03:49:42.224Z,12.87
2022-11-01T03:52:09.361Z,12.81
2022-11-01T03:54:36.413Z,12.78
2022-11-01T03:57:03.551Z,12.79
2022-11-01T03:59:30.673Z,12.87
2022-11-01T04:01:57.953Z,12.91
2022-11-01T04:04:25.112Z,12.88
2022-11-01T04:06:52.238Z,12.92
2022-11-01T04:09:19.269Z,12.83
2022-11-01T04:11:46.339Z,12.84
2022-11-01T04:14:31.721Z,12.87
2022-11-01T04:17:17.169Z,12.85
2022-11-01T04:20:02.486Z,12.87
2022-11-01T04:22:29.572Z,12.90
2022-11-01T04:24:56.621Z,12.92
2022-11-01T04:27:23.681Z,12.91
2022-11-01T04:29:50.760Z,12.94
2022-11-01T04:32:17.821Z,12.96
2022-11-01T04:34:45.047Z,12.89
2022-11-01T04:37:12.383Z,12.92
2022-11-01T04:39:39.569Z,12.89
2022-11-01T04:42:06.677Z,12.85
2022-11-01T04:44:33.866Z,12.83
2022-11-01T04:47:00.943Z,12.84
2022-11-01T04:49:27.983Z,12.81
2022-11-01T04:51:55.023Z,12.88
2022-11-01T04:54:22.118Z,12.89
2022-11-01T04:56:49.223Z,12.87
2022-11-01T04:59:16.280Z,12.89
2022-11-01T05:01:45.124Z,12.91
2022-11-01T05:04:12.356Z,12.89
2022-11-01T05:06:39.513Z,12.86
2022-11-01T05:09:06.590Z,12.92
2022-11-01T05:11:33.775Z,12.94
2022-11-01T05:14:00.818Z,12.90
2022-11-01T05:16:27.876Z,12.82
2022-11-01T05:18:54.919Z,12.85
2022-11-01T05:21:21.978Z,12.92
2022-11-01T05:23:49.109Z,12.82
2022-11-01T05:26:16.233Z,12.79
2022-11-01T05:28:43.361Z,12.74
2022-11-01T05:31:10.876Z,12.70
2022-11-01T05:33:37.982Z,12.67
2022-11-01T05:36:05.281Z,12.71
2022-11-01T05:38:32.431Z,12.76
2022-11-01T05:41:02.324Z,12.68
2022-11-01T05:43:29.579Z,12.64
2022-11-01T05:45:56.657Z,12.67
2022-11-01T05:48:23.761Z,12.74
2022-11-01T05:50:50.854Z,12.78
2022-11-01T05:53:17.923Z,12.78
2022-11-01T05:55:44.959Z,12.76
2022-11-01T05:58:12.092Z,12.81
2022-11-01T06:00:39.274Z,12.81
2022-11-01T06:03:07.176Z,12.84
2022-11-01T06:05:34.711Z,12.85
2022-11-01T06:08:02.382Z,12.68
2022-11-01T06:10:30.239Z,12.64
2022-11-01T06:12:57.673Z,12.63
2022-11-01T06:15:24.975Z,12.61
2022-11-01T06:17:57.279Z,12.51
2022-11-01T06:20:29.519Z,12.49
2022-11-01T06:22:57.921Z,12.47
2022-11-01T06:25:27.956Z,12.46
2022-11-01T06:27:55.035Z,12.41
2022-11-01T06:30:22.141Z,12.51
2022-11-01T06:32:49.196Z,12.49
2022-11-01T06:35:16.299Z,12.40
2022-11-01T06:37:43.404Z,12.42
2022-11-01T06:40:12.909Z,12.32
2022-11-01T06:42:45.370Z,12.28
2022-11-01T06:45:14.523Z,12.28
2022-11-01T06:47:46.299Z,12.17
2022-11-01T06:50:13.443Z,12.18
2022-11-01T06:52:40.476Z,12.15
2022-11-01T06:55:08.038Z,12.21
2022-11-01T06:57:35.076Z,12.22
2022-11-01T07:00:02.285Z,12.11
2022-11-01T07:02:30.059Z,12.05
2022-11-01T07:04:57.321Z,11.87
2022-11-01T07:07:24.376Z,11.98
2022-11-01T07:09:51.482Z,11.89
2022-11-01T07:12:18.743Z,11.81
2022-11-01T07:14:45.839Z,11.67
2022-11-01T07:17:12.899Z,11.71
2022-11-01T07:19:39.951Z,11.72
2022-11-01T07:22:08.436Z,11.64
2022-11-01T07:24:35.451Z,11.72
2022-11-01T07:27:02.496Z,11.65
2022-11-01T07:29:29.606Z,11.60
2022-11-01T07:31:56.779Z,11.53
2022-11-01T07:34:23.953Z,11.45
2022-11-01T07:36:53.982Z,11.38
2022-11-01T07:39:21.050Z,11.45
2022-11-01T07:41:48.163Z,11.34
2022-11-01T07:44:15.213Z,11.24
2022-11-01T07:46:42.273Z,11.27
2022-11-01T07:49:09.846Z,11.30
2022-11-01T07:51:37.011Z,11.22
2022-11-01T07:54:04.267Z,11.08
2022-11-01T07:56:31.306Z,10.98
2022-11-01T07:58:58.395Z,10.95
2022-11-01T08:01:25.569Z,10.90
2022-11-01T08:03:52.745Z,10.81
2022-11-01T08:08:49.085Z,10.70
2022-11-01T08:11:16.131Z,10.64
2022-11-01T08:13:43.230Z,10.56
2022-11-01T08:16:10.264Z,10.48
2022-11-01T08:18:37.337Z,10.45
2022-11-01T08:21:04.579Z,10.44
2022-11-01T08:23:31.701Z,10.41
2022-11-01T08:25:58.752Z,10.33
2022-11-01T08:28:28.392Z,10.39
2022-11-01T08:30:55.449Z,10.32
2022-11-01T08:33:22.614Z,10.22
2022-11-01T08:35:50.875Z,10.24
2022-11-01T08:38:18.946Z,10.32
2022-11-01T08:40:46.004Z,10.22
2022-11-01T08:43:13.071Z,10.15
2022-11-01T08:45:40.355Z,10.24
2022-11-01T08:48:09.329Z,10.35
2022-11-01T08:50:36.426Z,10.37
2022-11-01T08:53:14.435Z,10.41
2022-11-01T08:55:41.969Z,10.44
2022-11-01T08:58:09.561Z,10.44
2022-11-01T09:00:36.946Z,10.52
2022-11-01T09:03:04.339Z,10.74
2022-11-01T09:05:31.670Z,10.77
2022-11-01T09:08:00.279Z,10.86
2022-11-01T09:10:29.134Z,10.73
2022-11-01T09:12:57.829Z,10.87
2022-11-01T09:15:25.178Z,10.82
2022-11-01T09:17:53.025Z,10.83
2022-11-01T09:20:20.188Z,10.83
2022-11-01T09:22:51.243Z,10.83
2022-11-01T09:25:18.355Z,10.71
2022-11-01T09:27:45.456Z,10.90
2022-11-01T09:30:12.770Z,10.90
2022-11-01T09:32:39.856Z,10.91
2022-11-01T09:35:07.446Z,11.02
2022-11-01T09:37:34.666Z,11.02
2022-11-01T09:40:03.277Z,11.07
2022-11-01T09:42:39.740Z,11.08
2022-11-01T09:45:19.213Z,11.10
2022-11-01T09:47:48.783Z,11.07
2022-11-01T09:50:25.279Z,11.11
2022-11-01T09:52:54.937Z,11.21
2022-11-01T09:55:30.979Z,11.15
2022-11-01T09:58:06.725Z,11.16
2022-11-01T10:00:39.088Z,11.17
2022-11-01T10:03:33.447Z,11.14
2022-11-01T10:06:19.295Z,10.87
2022-11-01T10:08:46.718Z,10.90
2022-11-01T10:11:39.659Z,10.80
2022-11-01T10:14:23.193Z,10.88
2022-11-01T10:17:03.642Z,10.82
2022-11-01T10:19:35.268Z,10.86
2022-11-01T10:22:15.701Z,10.90
2022-11-01T10:24:52.530Z,10.93
2022-11-01T10:27:26.691Z,11.09
2022-11-01T10:30:04.334Z,11.01
2022-11-01T10:32:35.068Z,11.24
2022-11-01T10:35:10.119Z,11.28
2022-11-01T10:38:11.027Z,11.11
2022-11-01T10:40:47.895Z,11.33
2022-11-01T10:43:19.446Z,11.25
2022-11-01T10:45:51.267Z,11.15
2022-11-01T10:48:35.649Z,11.20
2022-11-01T10:51:06.293Z,11.32
2022-11-01T10:53:55.515Z,11.31
2022-11-01T10:56:29.718Z,11.29
2022-11-01T10:59:16.843Z,11.41
2022-11-01T11:01:45.094Z,11.43
2022-11-01T11:04:15.710Z,11.62
2022-11-01T11:06:43.488Z,11.58
2022-11-01T11:09:26.683Z,11.84
2022-11-01T11:11:59.952Z,11.83
2022-11-01T11:14:31.591Z,12.00
2022-11-01T11:17:00.048Z,12.18
2022-11-01T11:19:29.750Z,12.20
2022-11-01T11:21:58.973Z,11.96
2022-11-01T11:24:28.682Z,11.96
2022-11-01T11:26:57.379Z,11.94
2022-11-01T11:29:40.313Z,11.92
2022-11-01T11:32:18.892Z,12.13
2022-11-01T11:35:13.186Z,12.23
2022-11-01T11:37:49.967Z,12.19
2022-11-01T11:40:17.224Z,12.20
2022-11-01T11:42:45.889Z,12.01
2022-11-01T11:45:30.612Z,12.16
2022-11-01T11:48:15.548Z,12.35
2022-11-01T11:50:43.423Z,12.25
2022-11-01T11:53:24.857Z,12.21
2022-11-01T11:56:06.549Z,12.52
2022-11-01T11:58:38.257Z,12.42
2022-11-01T12:01:08.355Z,12.22
2022-11-01T12:03:56.839Z,12.34
2022-11-01T12:06:27.153Z,12.59
2022-11-01T12:08:59.288Z,12.72
2022-11-01T12:11:40.240Z,12.44
2022-11-01T12:14:21.708Z,12.42
2022-11-01T12:16:49.489Z,12.55
2022-11-01T12:19:27.466Z,12.71
2022-11-01T12:21:57.070Z,12.89
2022-11-01T12:24:32.490Z,12.82
2022-11-01T12:27:03.969Z,12.94
2022-11-01T12:30:11.405Z,12.54
2022-11-01T12:32:50.681Z,12.53
2022-11-01T12:35:23.436Z,12.67
2022-11-01T12:38:08.388Z,12.78
2022-11-01T12:40:42.155Z,12.79
2022-11-01T12:43:15.057Z,12.81
2022-11-01T12:45:52.620Z,12.96
2022-11-01T12:48:25.699Z,12.92
2022-11-01T12:51:03.487Z,12.70
2022-11-01T12:53:44.286Z,12.70
2022-11-01T12:56:12.019Z,12.89
2022-11-01T12:58:39.221Z,13.11
2022-11-01T13:01:28.172Z,13.01
2022-11-01T13:04:25.472Z,12.96
2022-11-01T13:07:13.516Z,12.76
2022-11-01T13:10:08.440Z,12.91
2022-11-01T13:12:39.102Z,13.25
2022-11-01T13:15:16.873Z,12.95
2022-11-01T13:17:52.749Z,12.84
2022-11-01T13:20:59.985Z,13.74
2022-11-01T13:23:27.012Z,17.84
2022-11-01T13:26:07.920Z,17.54
2022-11-01T13:28:47.355Z,18.21
2022-11-01T13:31:23.352Z,19.65
2022-11-01T13:34:00.985Z,18.22
2022-11-01T13:36:53.701Z,17.59
2022-11-01T13:39:33.971Z,15.66
2022-11-01T13:42:12.871Z,16.35
2022-11-01T13:44:47.640Z,16.67
2022-11-01T13:47:20.460Z,16.97
2022-11-01T13:49:53.103Z,14.88
2022-11-01T13:52:26.892Z,14.79
2022-11-01T13:54:58.129Z,13.98
2022-11-01T13:57:27.525Z,14.39
2022-11-01T13:59:55.980Z,14.38
2022-11-01T14:02:23.457Z,13.61
2022-11-01T14:05:11.120Z,13.40
2022-11-01T14:07:44.254Z,13.32
2022-11-01T14:10:17.380Z,13.46
2022-11-01T14:12:48.198Z,14.22
2022-11-01T14:15:22.115Z,14.11
2022-11-01T14:17:52.517Z,13.75
2022-11-01T14:20:25.606Z,13.24
2022-11-01T14:22:54.234Z,13.68
2022-11-01T14:28:17.771Z,13.76
2022-11-01T14:30:49.317Z,13.66
2022-11-01T14:33:21.991Z,13.12
2022-11-01T14:35:55.829Z,13.31
2022-11-01T14:38:35.537Z,14.27
2022-11-01T14:41:04.310Z,13.38
2022-11-01T14:43:35.881Z,12.96
2022-11-01T14:46:09.565Z,13.20
2022-11-01T14:48:46.351Z,13.36
2022-11-01T14:51:34.749Z,13.37
2022-11-01T14:54:11.572Z,13.76
2022-11-01T14:56:41.279Z,14.30
2022-11-01T14:59:14.439Z,14.29
2022-11-01T15:01:47.182Z,16.07
2022-11-01T15:04:29.441Z,15.62
2022-11-01T15:06:58.635Z,16.72
2022-11-01T15:09:30.962Z,16.58
2022-11-01T15:12:25.256Z,16.87
2022-11-01T15:14:55.132Z,16.07
2022-11-01T15:17:29.144Z,16.21
2022-11-01T15:19:57.285Z,15.83
2022-11-01T15:22:28.077Z,15.00
2022-11-01T15:24:58.627Z,15.04
2022-11-01T15:27:36.661Z,13.76
2022-11-01T15:30:04.782Z,13.78
2022-11-01T15:32:34.749Z,12.97
2022-11-01T15:35:18.898Z,13.60
2022-11-01T15:37:50.926Z,12.38
2022-11-01T15:40:31.387Z,11.63
2022-11-01T15:43:00.487Z,11.43
2022-11-01T15:45:30.815Z,11.37
2022-11-01T15:48:02.125Z,11.24
2022-11-01T15:50:35.020Z,11.08
2022-11-01T15:53:04.436Z,10.91
2022-11-01T15:55:36.074Z,10.89
2022-11-01T15:58:08.771Z,10.74
2022-11-01T16:00:43.091Z,10.59
2022-11-01T16:03:28.152Z,10.58
2022-11-01T16:06:00.629Z,10.35
2022-11-01T16:08:39.816Z,10.22
2022-11-01T16:11:07.414Z,10.25
2022-11-01T16:13:35.098Z,10.10
2022-11-01T16:16:12.801Z,9.99
2022-11-01T16:18:43.390Z,9.89
2022-11-01T16:21:20.226Z,9.86
2022-11-01T16:23:56.986Z,9.94
2022-11-01T16:26:24.514Z,10.08
2022-11-01T16:28:53.307Z,10.05
2022-11-01T16:31:28.369Z,9.82
2022-11-01T16:33:57.063Z,9.63
2022-11-01T16:36:35.645Z,9.60
2022-11-01T16:39:25.028Z,9.48
2022-11-01T16:41:52.685Z,9.55
2022-11-01T16:44:20.780Z,9.37
2022-11-01T16:46:48.053Z,9.53
2022-11-01T16:49:15.050Z,9.39
2022-11-01T16:51:42.132Z,9.27
2022-11-01T16:54:15.561Z,9.25
2022-11-01T16:56:49.268Z,9.13
2022-11-01T16:59:24.995Z,9.14
2022-11-01T17:01:54.935Z,9.15
2022-11-01T17:04:22.650Z,9.13
2022-11-01T17:06:50.561Z,9.05
2022-11-01T17:09:19.515Z,8.99
2022-11-01T17:11:51.172Z,9.04
2022-11-01T17:14:20.371Z,9.04
2022-11-01T17:16:49.453Z,9.02
2022-11-01T17:19:25.209Z,8.93
2022-11-01T17:21:52.884Z,9.18
2022-11-01T17:24:22.758Z,9.11
2022-11-01T17:26:51.239Z,9.14
2022-11-01T17:29:18.395Z,9.22
2022-11-01T17:31:45.523Z,9.05
2022-11-01T17:34:12.629Z,8.93
2022-11-01T17:36:44.921Z,8.75
2022-11-01T17:39:11.997Z,8.60
2022-11-01T17:41:39.383Z,8.63
2022-11-01T17:44:06.505Z,8.72
2022-11-01T17:46:33.627Z,8.60
2022-11-01T17:49:00.775Z,8.47
2022-11-01T17:51:27.813Z,8.40
2022-11-01T17:53:56.340Z,8.57
2022-11-01T17:56:24.215Z,8.47
2022-11-01T17:58:53.524Z,8.37
2022-11-01T18:01:21.658Z,8.43
2022-11-01T18:03:49.151Z,8.43
2022-11-01T18:06:16.931Z,8.26
2022-11-01T18:08:50.235Z,8.30
2022-11-01T18:11:33.211Z,8.35
2022-11-01T18:14:15.811Z,8.18
2022-11-01T18:16:49.132Z,8.03
2022-11-01T18:19:37.525Z,8.15
2022-11-01T18:22:21.375Z,8.17
2022-11-01T18:25:20.502Z,8.01
2022-11-01T18:27:47.598Z,7.94
2022-11-01T18:30:17.514Z,7.94
2022-11-01T18:33:04.842Z,7.92
2022-11-01T18:35:38.906Z,8.08
2022-11-01T18:38:30.310Z,8.10
2022-11-01T18:41:02.387Z,8.07
2022-11-01T18:43:34.898Z,8.14
2022-11-01T18:46:25.136Z,8.02
2022-11-01T18:48:59.434Z,8.06
2022-11-01T18:51:28.755Z,8.09
2022-11-01T18:54:12.526Z,8.14
2022-11-01T18:56:48.350Z,8.31
2022-11-01T18:59:26.122Z,8.40
2022-11-01T19:02:00.242Z,8.41
2022-11-01T19:04:31.144Z,8.36
2022-11-01T19:07:22.711Z,8.46
2022-11-01T19:09:52.103Z,8.49
2022-11-01T19:12:27.797Z,8.51
2022-11-01T19:15:02.186Z,8.57
2022-11-01T19:17:37.271Z,8.59
2022-11-01T19:20:20.645Z,8.61
2022-11-01T19:22:47.915Z,8.62
2022-11-01T19:25:20.448Z,8.58
2022-11-01T19:27:53.385Z,8.79
2022-11-01T19:30:24.705Z,8.74
2022-11-01T19:32:54.074Z,8.90
2022-11-01T19:35:22.663Z,8.87
2022-11-01T19:37:52.424Z,8.84
2022-11-01T19:40:32.532Z,8.76
2022-11-01T19:43:10.151Z,8.79
2022-11-01T19:45:43.892Z,8.73
2022-11-01T19:48:13.129Z,8.69
2022-11-01T19:50:42.024Z,8.69
2022-11-01T19:53:17.992Z,8.62
2022-11-01T19:55:59.899Z,8.57
2022-11-01T19:58:43.555Z,8.57
2022-11-01T20:01:17.019Z,8.65
2022-11-01T20:03:47.381Z,8.63
2022-11-01T20:06:30.308Z,8.47
2022-11-01T20:09:02.753Z,8.57
2022-11-01T20:11:33.590Z,8.64
2022-11-01T20:14:00.992Z,8.54
2022-11-01T20:16:28.272Z,8.48
2022-11-01T20:18:55.468Z,8.46
2022-11-01T20:21:22.513Z,8.58
2022-11-01T20:23:50.175Z,8.60
2022-11-01T20:26:17.328Z,8.60
2022-11-01T20:28:44.429Z,8.58
2022-11-01T20:31:11.559Z,8.60
2022-11-01T20:33:38.706Z,8.61
2022-11-01T20:36:10.983Z,8.63
2022-11-01T20:38:38.917Z,8.69
2022-11-01T20:41:06.263Z,8.82
2022-11-01T20:43:33.345Z,8.72
2022-11-01T20:46:00.458Z,8.74
2022-11-01T20:48:27.586Z,8.80
2022-11-01T20:50:54.872Z,8.83
2022-11-01T20:53:24.816Z,8.88
2022-11-01T20:55:55.806Z,8.87
2022-11-01T20:58:22.859Z,8.82
2022-11-01T21:00:51.507Z,8.73
2022-11-01T21:03:20.998Z,8.74
2022-11-01T21:05:49.030Z,8.72
2022-11-01T21:08:27.924Z,8.79
2022-11-01T21:10:59.378Z,8.73
2022-11-01T21:13:33.902Z,8.74
2022-11-01T21:16:02.564Z,8.76
2022-11-01T21:18:37.223Z,8.75
2022-11-01T21:21:13.252Z,8.86
2022-11-01T21:23:42.947Z,8.85
2022-11-01T21:26:23.372Z,8.96
2022-11-01T21:28:54.400Z,8.88
2022-11-01T21:31:34.358Z,8.98
2022-11-01T21:34:10.445Z,8.97
2022-11-01T21:36:41.297Z,8.86
2022-11-01T21:39:17.058Z,8.83
2022-11-01T21:41:52.085Z,8.70
2022-11-01T21:44:38.723Z,8.75
2022-11-01T21:47:08.453Z,8.77
2022-11-01T21:49:36.615Z,8.82
2022-11-01T21:52:06.634Z,8.74
2022-11-01T21:54:37.243Z,8.79
2022-11-01T21:57:06.888Z,8.68
2022-11-01T21:59:34.241Z,8.67
2022-11-01T22:02:02.310Z,8.62
2022-11-01T22:04:31.236Z,8.60
2022-11-01T22:07:00.421Z,8.64
2022-11-01T22:09:27.827Z,8.56
2022-11-01T22:11:54.920Z,8.52
2022-11-01T22:14:22.441Z,8.68
2022-11-01T22:16:49.503Z,8.60
2022-11-01T22:19:16.609Z,8.55
2022-11-01T22:24:15.862Z,8.46
2022-11-01T22:26:42.942Z,8.59
2022-11-01T22:29:10.036Z,8.58
2022-11-01T22:31:37.092Z,8.58
2022-11-01T22:34:04.162Z,8.54
2022-11-01T22:36:37.491Z,8.50
2022-11-01T22:39:30.919Z,8.38
2022-11-01T22:41:58.007Z,8.37
2022-11-01T22:44:27.009Z,8.35
2022-11-01T22:46:58.934Z,8.31
2022-11-01T22:49:41.841Z,8.37
2022-11-01T22:52:15.715Z,8.37
2022-11-01T22:54:47.432Z,8.46
2022-11-01T22:57:17.879Z,8.41
2022-11-01T22:59:53.208Z,8.32
2022-11-01T23:02:31.549Z,8.29
2022-11-01T23:05:04.702Z,8.27
2022-11-01T23:07:39.397Z,8.26
2022-11-01T23:10:22.910Z,8.17
2022-11-01T23:13:15.598Z,8.26
2022-11-01T23:15:43.132Z,8.29
2022-11-01T23:18:16.993Z,8.22
2022-11-01T23:20:45.313Z,8.16
2022-11-01T23:23:19.023Z,8.20
2022-11-01T23:25:46.975Z,8.14
2022-11-01T23:28:14.911Z,8.17
2022-11-01T23:30:43.505Z,8.13
2022-11-01T23:33:17.017Z,8.14
2022-11-01T23:35:54.229Z,8.20
2022-11-01T23:38:29.793Z,8.03
2022-11-01T23:40:57.416Z,8.06
2022-11-01T23:43:32.916Z,8.01
2022-11-01T23:46:01.326Z,7.96
2022-11-01T23:48:29.099Z,8.03
2022-11-01T23:50:56.548Z,8.00
2022-11-01T23:53:41.367Z,8.01
2022-11-01T23:56:09.418Z,7.98
2022-11-01T23:58:37.754Z,8.09
